首页
METAR-TAF:

METAR-TAF

机场 :

Menomonie Municipal Airport (Score Field)

梅诺莫尼, 威斯康辛州, 美国

纬度: 44-53-32N, 经度: 091-52-04W, 海拔: 273米

当前天气观测

该预报发布于28分钟前的21:35 UTC
静风
温度 26°C
湿度 39%
气压 1018 hPa
能見度: 16.1公里
散云层高于6000英尺
散云层高于7500英尺

METAR: KLUM 142135Z AUTO 00000KT 10SM SCT060 SCT075 26/11 A3005 RMK AO2 T02570109 PWINO

时间: 17:03 (22:03 UTC)


TAF: 丢失

超过4000个机场的气象观测和天气预报(METAR&TAF报告)。

可查询的气象台以黄色和红色小点在地图上表示。

将鼠标移到小点上方,可查看气象台名称。

然后点击查看天气观测和预报。

如需切换地图:点击带黑十字的绿色按钮放大地图;点击带横线的绿色按钮缩小地图;或者点击绿色箭头查看邻近地区的地图。


METAR-TAF: